createdAt,value
2018-04-02T00:00:21.562Z,1.58
2018-04-02T00:01:22.306Z,1.46
2018-04-02T00:02:21.644Z,1.44
2018-04-02T00:03:21.551Z,1.36
2018-04-02T00:04:21.907Z,1.4
2018-04-02T00:05:21.958Z,1.5
2018-04-02T00:06:22.155Z,1.47
2018-04-02T00:07:22.822Z,1.42
2018-04-02T00:08:22.048Z,1.5
2018-04-02T00:09:22.675Z,1.47
2018-04-02T00:10:22.662Z,1.61
2018-04-02T00:11:22.420Z,1.57
2018-04-02T00:12:23.349Z,1.57
2018-04-02T00:13:22.834Z,1.64
2018-04-02T00:14:23.139Z,1.68
2018-04-02T00:15:22.752Z,1.84
2018-04-02T00:16:23.222Z,1.92
2018-04-02T00:17:22.920Z,1.92
2018-04-02T00:18:23.000Z,2.08
2018-04-02T00:19:22.968Z,2.12
2018-04-02T00:20:22.992Z,2.15
2018-04-02T00:21:23.262Z,2.2
2018-04-02T00:22:22.866Z,2.29
2018-04-02T00:23:23.169Z,2.18
2018-04-02T00:24:23.316Z,2.4
2018-04-02T00:25:23.688Z,2.45
2018-04-02T00:26:23.956Z,2.33
2018-04-02T00:27:24.029Z,2.3
2018-04-02T00:28:35.981Z,2.34
2018-04-02T00:29:35.836Z,2.36
2018-04-02T00:30:36.088Z,2.41
2018-04-02T00:31:36.351Z,2.45
2018-04-02T00:32:36.615Z,2.4
2018-04-02T00:33:36.401Z,2.27
2018-04-02T00:34:36.102Z,2.31
2018-04-02T00:35:36.666Z,2.29
2018-04-02T00:36:36.606Z,2.33
2018-04-02T00:37:36.651Z,2.34
2018-04-02T00:38:36.901Z,2.44
2018-04-02T00:39:37.409Z,2.41
2018-04-02T00:40:37.159Z,2.36
2018-04-02T00:41:37.186Z,2.31
2018-04-02T00:42:37.466Z,2.3
2018-04-02T00:43:37.476Z,2.45
2018-04-02T00:44:37.693Z,2.24
2018-04-02T00:45:37.716Z,2.23
2018-04-02T00:46:37.489Z,2.11
2018-04-02T00:47:37.508Z,2.09
2018-04-02T00:48:38.000Z,2.01
2018-04-02T00:49:38.019Z,1.89
2018-04-02T00:50:37.754Z,1.83
2018-04-02T00:51:38.251Z,1.84
2018-04-02T00:52:38.281Z,1.78
2018-04-02T00:53:38.038Z,1.71
2018-04-02T00:54:38.601Z,1.69
2018-04-02T00:55:38.629Z,1.74
2018-04-02T00:56:38.879Z,1.71
2018-04-02T00:57:38.611Z,1.75
2018-04-02T00:58:38.810Z,1.79
2018-04-02T00:59:39.320Z,1.75
2018-04-02T01:00:39.365Z,1.87
2018-04-02T01:01:39.399Z,1.82
2018-04-02T01:02:39.414Z,1.84
2018-04-02T01:03:39.433Z,1.93
2018-04-02T01:04:39.500Z,1.93
2018-04-02T01:05:39.203Z,2.01
2018-04-02T01:06:39.511Z,2.02
2018-04-02T01:07:39.549Z,2.04
2018-04-02T01:08:39.667Z,2.08
2018-04-02T01:09:39.921Z,2.05
2018-04-02T01:10:39.605Z,2.09
2018-04-02T01:11:39.636Z,2.05
2018-04-02T01:12:40.212Z,2.09
2018-04-02T01:13:40.230Z,2.12
2018-04-02T01:14:40.253Z,2.08
2018-04-02T01:15:40.025Z,2.09
2018-04-02T01:16:40.040Z,2.12
2018-04-02T01:17:40.059Z,2.09
2018-04-02T01:18:40.096Z,2.02
2018-04-02T01:19:40.390Z,2.05
2018-04-02T01:20:40.409Z,2.09
2018-04-02T01:21:40.693Z,2.08
2018-04-02T01:22:40.723Z,2.08
2018-04-02T01:23:41.266Z,2.05
2018-04-02T01:24:41.019Z,2.09
2018-04-02T01:25:41.305Z,2.02
2018-04-02T01:26:41.069Z,2.08
2018-04-02T01:27:41.101Z,2.05
2018-04-02T01:28:41.358Z,2.01
2018-04-02T01:29:41.404Z,1.92
2018-04-02T01:30:41.427Z,1.87
2018-04-02T01:31:41.461Z,1.9
2018-04-02T01:32:41.276Z,1.84
2018-04-02T01:33:41.277Z,1.83
2018-04-02T01:34:41.525Z,1.87
2018-04-02T01:35:41.799Z,1.82
2018-04-02T01:36:42.105Z,1.82
2018-04-02T01:37:42.115Z,1.87
2018-04-02T01:38:41.881Z,1.86
2018-04-02T01:39:42.221Z,1.76
2018-04-02T01:40:42.215Z,1.86
2018-04-02T01:41:42.247Z,1.71
2018-04-02T01:42:42.544Z,1.71
2018-04-02T01:43:42.613Z,1.58
2018-04-02T01:44:42.707Z,1.64
2018-04-02T01:45:42.680Z,1.64
2018-04-02T01:46:43.000Z,1.61
2018-04-02T01:47:42.725Z,1.57
2018-04-02T01:48:43.776Z,1.4
2018-04-02T01:49:43.524Z,1.42
2018-04-02T01:50:43.308Z,1.29
2018-04-02T01:51:43.560Z,1.26
2018-04-02T01:52:43.544Z,1.26
2018-04-02T01:53:43.863Z,1.2
2018-04-02T01:54:43.367Z,1.12
2018-04-02T01:55:43.666Z,1.2
2018-04-02T01:56:44.070Z,1.04
2018-04-02T01:57:44.407Z,1.1
2018-04-02T01:58:44.434Z,1.12
2018-04-02T01:59:44.458Z,1.14
2018-04-02T02:00:44.104Z,1.11
2018-04-02T02:01:44.509Z,0.9
2018-04-02T02:02:44.650Z,0.86
2018-04-02T02:03:44.662Z,0.84
2018-04-02T02:04:45.321Z,0.85
2018-04-02T02:05:45.393Z,0.74
2018-04-02T02:06:45.138Z,0.66
2018-04-02T02:07:45.364Z,0.69
2018-04-02T02:08:45.527Z,0.57
2018-04-02T02:09:45.331Z,0.5
2018-04-02T02:10:45.816Z,0.48
2018-04-02T02:11:45.363Z,0.57
2018-04-02T02:12:45.616Z,0.48
2018-04-02T02:13:46.173Z,0.42
2018-04-02T02:14:46.566Z,0.48
2018-04-02T02:15:46.679Z,0.5
2018-04-02T02:16:46.967Z,0.41
2018-04-02T02:17:47.141Z,0.39
2018-04-02T02:18:47.514Z,0.42
2018-04-02T02:19:47.395Z,0.28
2018-04-02T02:20:47.960Z,0.39
2018-04-02T02:21:48.064Z,0.34
2018-04-02T02:22:48.271Z,0.32
2018-04-02T02:23:48.774Z,0.24
2018-04-02T02:24:48.539Z,0.23
2018-04-02T02:25:49.049Z,0.26
2018-04-02T02:26:49.014Z,0.26
2018-04-02T02:27:49.034Z,0.23
2018-04-02T02:28:48.497Z,0.14
2018-04-02T02:29:48.838Z,0.19
2018-04-02T02:30:48.941Z,0.14
2018-04-02T02:31:49.094Z,0.14
2018-04-02T02:32:48.874Z,0.13
2018-04-02T02:33:49.150Z,0.2
2018-04-02T02:34:48.935Z,0.2
2018-04-02T02:35:49.592Z,0.14
2018-04-02T02:36:49.706Z,0.21
2018-04-02T02:37:49.648Z,0.21
2018-04-02T02:38:49.390Z,0.32
2018-04-02T02:39:49.679Z,0.32
2018-04-02T02:40:49.410Z,0.42
2018-04-02T02:41:49.848Z,0.41
2018-04-02T02:42:50.084Z,0.44
2018-04-02T02:43:49.870Z,0.45
2018-04-02T02:44:50.358Z,0.52
2018-04-02T02:45:50.771Z,0.53
2018-04-02T02:46:50.783Z,0.64
2018-04-02T02:47:50.948Z,0.63
2018-04-02T02:48:50.661Z,0.56
2018-04-02T02:49:51.060Z,0.56
2018-04-02T02:50:50.843Z,0.42
2018-04-02T02:51:51.005Z,0.39
2018-04-02T02:52:51.516Z,0.39
2018-04-02T02:53:51.476Z,0.39
2018-04-02T02:54:51.501Z,0.35
2018-04-02T02:55:51.901Z,0.35
2018-04-02T02:56:52.169Z,0.28
2018-04-02T02:57:52.313Z,0.23
2018-04-02T02:58:52.633Z,0.21
2018-04-02T02:59:52.371Z,0.14
2018-04-02T03:00:52.780Z,0.1
2018-04-02T03:01:52.913Z,0.2
2018-04-02T03:02:52.652Z,0.09
2018-04-02T03:03:53.044Z,0.09
2018-04-02T03:04:53.219Z,0.2
2018-04-02T03:05:53.879Z,-0.02
2018-04-02T03:06:53.653Z,0.05
2018-04-02T03:07:53.920Z,-0.04
2018-04-02T03:08:53.692Z,-0.12
2018-04-02T03:09:54.355Z,-0.13
2018-04-02T03:10:54.103Z,-0.04
2018-04-02T03:11:54.546Z,-0.01
2018-04-02T03:12:54.923Z,-0.07
2018-04-02T03:13:55.866Z,-0.07
2018-04-02T03:14:55.252Z,-0.07
2018-04-02T03:15:55.453Z,-0.12
2018-04-02T03:16:56.101Z,-0.23
2018-04-02T03:17:55.601Z,-0.25
2018-04-02T03:18:56.003Z,-0.1
2018-04-02T03:19:56.031Z,-0.1
2018-04-02T03:20:56.417Z,-0.18
2018-04-02T03:21:56.826Z,-0.2
2018-04-02T03:22:57.225Z,-0.15
2018-04-02T03:23:57.360Z,-0.15
2018-04-02T03:24:57.370Z,-0.12
2018-04-02T03:25:57.406Z,-0.19
2018-04-02T03:26:57.432Z,-0.19
2018-04-02T03:27:57.447Z,-0.22
2018-04-02T03:28:57.634Z,-0.18
2018-04-02T03:29:57.657Z,-0.25
2018-04-02T03:30:58.059Z,-0.25
2018-04-02T03:31:58.729Z,-0.27
2018-04-02T03:32:59.157Z,-0.25
2018-04-02T03:33:58.653Z,-0.2
2018-04-02T03:34:59.232Z,-0.36
2018-04-02T03:35:58.984Z,-0.28
2018-04-02T03:36:59.253Z,-0.33
2018-04-02T03:37:59.422Z,-0.31
2018-04-02T03:38:59.706Z,-0.28
2018-04-02T03:39:59.347Z,-0.34
2018-04-02T03:40:59.637Z,-0.28
2018-04-02T03:42:00.051Z,-0.27
2018-04-02T03:42:59.931Z,-0.23
2018-04-02T03:44:00.481Z,-0.25
2018-04-02T03:45:00.554Z,-0.25
2018-04-02T03:46:00.470Z,-0.22
2018-04-02T03:47:00.782Z,-0.27
2018-04-02T03:48:00.937Z,-0.25
2018-04-02T03:49:00.707Z,-0.28
2018-04-02T03:50:01.256Z,-0.22
2018-04-02T03:51:01.148Z,-0.22
2018-04-02T03:52:01.993Z,-0.18
2018-04-02T03:53:01.904Z,-0.15
2018-04-02T03:54:01.590Z,-0.12
2018-04-02T03:55:01.694Z,-0.05
2018-04-02T03:56:01.401Z,-0.09
2018-04-02T03:57:01.640Z,-0.05
2018-04-02T03:58:01.643Z,-0.05
2018-04-02T03:59:01.407Z,-0.1
2018-04-02T04:01:01.462Z,-0.12
2018-04-02T04:02:01.745Z,-0.25
2018-04-02T04:03:02.025Z,-0.23
2018-04-02T04:04:01.996Z,-0.36
2018-04-02T04:05:02.482Z,-0.33
2018-04-02T04:06:02.775Z,-0.37
2018-04-02T04:07:02.744Z,-0.49
2018-04-02T04:08:02.222Z,-0.41
2018-04-02T04:09:02.743Z,-0.55
2018-04-02T04:10:02.776Z,-0.49
2018-04-02T04:11:02.806Z,-0.62
2018-04-02T04:12:02.843Z,-0.62
2018-04-02T04:13:03.936Z,-0.61
2018-04-02T04:14:02.725Z,-0.58
2018-04-02T04:15:03.850Z,-0.58
2018-04-02T04:16:03.128Z,-0.59
2018-04-02T04:17:03.319Z,-0.67
2018-04-02T04:18:03.696Z,-0.62
2018-04-02T04:19:03.728Z,-0.61
2018-04-02T04:20:03.411Z,-0.56
2018-04-02T04:21:03.910Z,-0.59
2018-04-02T04:22:03.868Z,-0.61
2018-04-02T04:23:03.611Z,-0.66
2018-04-02T04:24:03.342Z,-0.52
2018-04-02T04:25:04.209Z,-0.64
2018-04-02T04:26:03.924Z,-0.61
2018-04-02T04:27:04.397Z,-0.64
2018-04-02T04:28:04.535Z,-0.58
2018-04-02T04:29:05.072Z,-0.62
2018-04-02T04:30:05.404Z,-0.62
2018-04-02T04:31:05.826Z,-0.61
2018-04-02T04:32:05.840Z,-0.58
2018-04-02T04:33:05.732Z,-0.55
2018-04-02T04:34:06.372Z,-0.61
2018-04-02T04:35:06.389Z,-0.62
2018-04-02T04:36:06.323Z,-0.67
2018-04-02T04:37:06.332Z,-0.59
2018-04-02T04:38:06.724Z,-0.59
2018-04-02T04:39:06.748Z,-0.58
2018-04-02T04:40:07.282Z,-0.61
2018-04-02T04:41:06.669Z,-0.58
2018-04-02T04:42:07.075Z,-0.59
2018-04-02T04:43:07.486Z,-0.61
2018-04-02T04:44:07.845Z,-0.59
2018-04-02T04:45:07.856Z,-0.64
2018-04-02T04:46:07.816Z,-0.62
2018-04-02T04:47:07.927Z,-0.59
2018-04-02T04:48:08.350Z,-0.64
2018-04-02T04:49:08.600Z,-0.55
2018-04-02T04:50:08.765Z,-0.58
2018-04-02T04:51:09.204Z,-0.56
2018-04-02T04:52:09.507Z,-0.59
2018-04-02T04:53:09.343Z,-0.58
2018-04-02T04:54:09.185Z,-0.64
2018-04-02T04:55:09.175Z,-0.64
2018-04-02T04:56:09.385Z,-0.59
2018-04-02T04:57:09.533Z,-0.64
2018-04-02T04:58:09.818Z,-0.62
2018-04-02T04:59:10.298Z,-0.52
2018-04-02T05:00:16.844Z,-0.54
2018-04-02T05:01:10.289Z,-0.46
2018-04-02T05:02:10.342Z,-0.46
2018-04-02T05:03:10.624Z,-0.55
2018-04-02T05:04:10.802Z,-0.46
2018-04-02T05:05:11.054Z,-0.4
2018-04-02T05:06:11.196Z,-0.36
2018-04-02T05:07:11.597Z,-0.4
2018-04-02T05:08:11.361Z,-0.37
2018-04-02T05:09:11.367Z,-0.48
2018-04-02T05:10:11.907Z,-0.38
2018-04-02T05:11:11.970Z,-0.4
2018-04-02T05:12:12.088Z,-0.43
2018-04-02T05:13:12.357Z,-0.31
2018-04-02T05:14:12.544Z,-0.41
2018-04-02T05:15:13.055Z,-0.27
2018-04-02T05:16:12.813Z,-0.22
2018-04-02T05:17:12.451Z,-0.18
2018-04-02T05:18:13.010Z,-0.16
2018-04-02T05:19:13.155Z,-0.15
2018-04-02T05:20:13.371Z,-0.1
2018-04-02T05:21:12.835Z,-0.25
2018-04-02T05:22:13.389Z,-0.19
2018-04-02T05:23:13.466Z,-0.12
2018-04-02T05:24:12.976Z,-0.15
2018-04-02T05:25:13.653Z,-0.01
2018-04-02T05:26:13.653Z,0.01
2018-04-02T05:27:14.135Z,-0.07
2018-04-02T05:28:15.057Z,0.09
2018-04-02T05:29:14.836Z,0.1
2018-04-02T05:30:14.967Z,0.2
2018-04-02T05:31:15.354Z,0.26
2018-04-02T05:32:15.053Z,0.28
2018-04-02T05:33:15.734Z,0.34
2018-04-02T05:34:16.186Z,0.31
2018-04-02T05:35:16.576Z,0.37
2018-04-02T05:36:16.665Z,0.41
2018-04-02T05:37:15.757Z,0.38
2018-04-02T05:38:15.772Z,0.47
2018-04-02T05:39:15.489Z,0.42
2018-04-02T05:40:15.628Z,0.6
2018-04-02T05:41:16.284Z,0.64
2018-04-02T05:42:16.318Z,0.63
2018-04-02T05:43:16.201Z,0.76
2018-04-02T05:44:16.735Z,0.85
2018-04-02T05:45:16.811Z,0.85
2018-04-02T05:46:16.546Z,0.99
2018-04-02T05:47:17.004Z,0.93
2018-04-02T05:48:16.997Z,0.94
2018-04-02T05:49:17.404Z,0.9
2018-04-02T05:50:17.628Z,0.96
2018-04-02T05:51:17.707Z,1.02
2018-04-02T05:52:18.169Z,1.21
2018-04-02T05:53:18.153Z,1.2
2018-04-02T05:54:18.268Z,1.36
2018-04-02T05:55:18.208Z,1.51
2018-04-02T05:56:18.356Z,1.68
2018-04-02T05:57:18.238Z,1.74
2018-04-02T05:58:18.408Z,1.93
2018-04-02T05:59:18.412Z,2.06
2018-04-02T06:00:21.817Z,1.94
2018-04-02T06:01:22.572Z,2.12
2018-04-02T06:02:22.291Z,2.08
2018-04-02T06:03:22.388Z,2.2
2018-04-02T06:04:22.667Z,2.3
2018-04-02T06:05:22.688Z,2.27
2018-04-02T06:06:22.733Z,2.31
2018-04-02T06:07:22.418Z,2.3
2018-04-02T06:08:23.060Z,2.31
2018-04-02T06:09:22.882Z,2.38
2018-04-02T06:10:23.010Z,2.44
2018-04-02T06:11:23.142Z,2.45
2018-04-02T06:12:23.182Z,2.44
2018-04-02T06:13:22.935Z,2.47
2018-04-02T06:14:23.392Z,2.55
2018-04-02T06:15:22.818Z,2.62
2018-04-02T06:16:23.514Z,2.65
2018-04-02T06:17:23.395Z,2.72
2018-04-02T06:18:23.815Z,2.81
2018-04-02T06:19:23.420Z,3.01
2018-04-02T06:20:23.520Z,2.96
2018-04-02T06:21:23.693Z,3.05
2018-04-02T06:22:23.837Z,3.2
2018-04-02T06:23:23.882Z,3.16
2018-04-02T06:24:24.611Z,3.23
2018-04-02T06:25:24.716Z,3.34
2018-04-02T06:26:24.724Z,3.48
2018-04-02T06:27:24.762Z,3.51
2018-04-02T06:28:24.502Z,3.66
2018-04-02T06:29:24.962Z,3.85
2018-04-02T06:30:25.116Z,4.07
2018-04-02T06:31:25.416Z,4.66
2018-04-02T06:32:25.188Z,5.26
2018-04-02T06:33:25.591Z,6.07
2018-04-02T06:34:26.005Z,7.08
2018-04-02T06:35:26.092Z,7.67
2018-04-02T06:36:26.105Z,8.31
2018-04-02T06:37:26.797Z,9.04
2018-04-02T06:38:26.959Z,9.85
2018-04-02T06:39:26.696Z,10.31
2018-04-02T06:40:27.045Z,10.84
2018-04-02T06:41:27.310Z,10.95
2018-04-02T06:42:27.823Z,11.26
2018-04-02T06:43:27.941Z,11.94
2018-04-02T06:44:27.814Z,12.44
2018-04-02T06:45:28.240Z,12.84
2018-04-02T06:46:28.251Z,13.07
2018-04-02T06:47:28.355Z,13.32
2018-04-02T06:48:28.034Z,13.54
2018-04-02T06:49:28.172Z,13.72
2018-04-02T06:50:28.839Z,14.24
2018-04-02T06:51:29.201Z,14.57
2018-04-02T06:52:29.583Z,14.74
2018-04-02T06:53:29.700Z,14.75
2018-04-02T06:54:29.708Z,14.39
2018-04-02T06:55:29.875Z,14.41
2018-04-02T06:56:30.525Z,14.8
2018-04-02T06:57:30.561Z,15.27
2018-04-02T06:58:30.598Z,15.55
2018-04-02T06:59:30.398Z,15.71
2018-04-02T07:00:30.382Z,15.93
2018-04-02T07:01:30.670Z,16.13
2018-04-02T07:02:30.754Z,16.3
2018-04-02T07:03:30.625Z,16.32
2018-04-02T07:04:31.621Z,16.39
2018-04-02T07:05:31.258Z,16.36
2018-04-02T07:06:31.615Z,16.77
2018-04-02T07:07:32.022Z,17.35
2018-04-02T07:08:32.609Z,17.79
2018-04-02T07:09:32.637Z,18.02
2018-04-02T07:10:33.301Z,18.29
2018-04-02T07:11:32.809Z,18.54
2018-04-02T07:12:32.731Z,18.63
2018-04-02T07:13:33.265Z,18.74
2018-04-02T07:14:32.944Z,18.71
2018-04-02T07:15:32.639Z,18.66
2018-04-02T07:16:32.646Z,18.91
2018-04-02T07:17:33.351Z,19.19
2018-04-02T07:18:32.997Z,19.4
2018-04-02T07:19:33.541Z,19.46
2018-04-02T07:20:33.352Z,19.4
2018-04-02T07:21:34.174Z,19.25
2018-04-02T07:22:33.921Z,19.27
2018-04-02T07:23:33.694Z,19.3
2018-04-02T07:24:34.278Z,19.15
2018-04-02T07:25:34.091Z,19.3
2018-04-02T07:26:34.068Z,19.17
2018-04-02T07:27:34.167Z,18.94
2018-04-02T07:28:34.356Z,18.38
2018-04-02T07:29:34.954Z,18.05
2018-04-02T07:30:35.325Z,18.08
2018-04-02T07:31:35.224Z,18.45
2018-04-02T07:32:34.708Z,18.72
2018-04-02T07:33:35.294Z,18.75
2018-04-02T07:34:35.726Z,18.91
2018-04-02T07:35:35.766Z,19.07
2018-04-02T07:36:35.902Z,19.2
2018-04-02T07:37:36.455Z,19.16
2018-04-02T07:38:36.460Z,19.28
2018-04-02T07:39:36.916Z,19.67
2018-04-02T07:40:36.501Z,19.93
2018-04-02T07:41:36.158Z,20.15
2018-04-02T07:42:36.688Z,20.25
2018-04-02T07:43:36.694Z,20.08
2018-04-02T07:44:36.731Z,19.64
2018-04-02T07:45:36.652Z,18.97
2018-04-02T07:46:37.120Z,18.57
2018-04-02T07:47:36.925Z,18.57
2018-04-02T07:48:36.593Z,18.59
2018-04-02T07:49:37.019Z,18.65
2018-04-02T07:50:37.966Z,18.72
2018-04-02T07:51:37.820Z,18.99
2018-04-02T07:52:37.878Z,18.89
2018-04-02T07:53:37.832Z,18.66
2018-04-02T07:54:37.888Z,18.68
2018-04-02T07:55:37.919Z,18.6
2018-04-02T07:56:38.348Z,18.42
2018-04-02T07:57:38.300Z,18.63
2018-04-02T07:58:38.494Z,18.89
2018-04-02T07:59:39.181Z,18.56
2018-04-02T08:00:39.412Z,18.47
2018-04-02T08:01:39.375Z,18.61
2018-04-02T08:02:39.132Z,18.89
2018-04-02T08:03:39.389Z,18.9
2018-04-02T08:04:39.694Z,19.05
2018-04-02T08:05:39.466Z,19.1
2018-04-02T08:06:40.208Z,19
2018-04-02T08:07:40.237Z,18.9
2018-04-02T08:08:40.028Z,18.99
2018-04-02T08:09:40.047Z,18.94
2018-04-02T08:10:40.090Z,19.17
2018-04-02T08:11:39.835Z,19.65
2018-04-02T08:12:40.344Z,19.72
2018-04-02T08:13:40.815Z,19.06
2018-04-02T08:14:40.859Z,18.36
2018-04-02T08:15:40.892Z,18.19
2018-04-02T08:16:41.114Z,18.47
2018-04-02T08:17:41.134Z,19.02
2018-04-02T08:18:41.618Z,19.37
2018-04-02T08:19:41.380Z,19.42
2018-04-02T08:20:41.864Z,19.63
2018-04-02T08:21:41.959Z,19.83
2018-04-02T08:22:42.211Z,19.98
2018-04-02T08:23:42.727Z,20.07
2018-04-02T08:24:42.768Z,20.16
2018-04-02T08:25:42.535Z,20.01
2018-04-02T08:26:42.862Z,20.08
2018-04-02T08:27:42.991Z,20.4
2018-04-02T08:28:42.946Z,20.37
2018-04-02T08:29:43.115Z,20.46
2018-04-02T08:30:44.374Z,20.57
2018-04-02T08:31:44.458Z,20.44
2018-04-02T08:32:44.229Z,20.6
2018-04-02T08:33:44.530Z,20.82
2018-04-02T08:34:43.826Z,21.33
2018-04-02T08:35:44.768Z,21.71
2018-04-02T08:36:44.944Z,22.31
2018-04-02T08:37:44.821Z,22.96
2018-04-02T08:38:45.077Z,23.64
2018-04-02T08:39:44.066Z,23.7
2018-04-02T08:40:43.594Z,23.9
2018-04-02T08:41:44.529Z,24.07
2018-04-02T08:42:45.244Z,24.18
2018-04-02T08:43:45.182Z,24.12
2018-04-02T08:44:45.024Z,24
2018-04-02T08:45:44.682Z,24.08
2018-04-02T08:46:45.222Z,24.11
2018-04-02T08:47:44.638Z,23.79
2018-04-02T08:48:44.401Z,23.81
2018-04-02T08:49:45.095Z,23.89
2018-04-02T08:50:45.331Z,24.11
2018-04-02T08:51:45.100Z,23.93
2018-04-02T08:52:44.727Z,24
2018-04-02T08:53:44.749Z,23.84
2018-04-02T08:54:44.919Z,23.06
2018-04-02T08:55:44.599Z,22.33
2018-04-02T08:56:44.431Z,22.64
2018-04-02T08:57:44.957Z,23.42
2018-04-02T08:58:44.962Z,23.55
2018-04-02T08:59:44.994Z,23.19
2018-04-02T09:00:45.299Z,22.31
2018-04-02T09:01:45.454Z,21.19
2018-04-02T09:02:45.226Z,20.02
2018-04-02T09:03:45.675Z,19.07
2018-04-02T09:04:45.554Z,18.49
2018-04-02T09:05:45.964Z,18.01
2018-04-02T09:06:45.833Z,17.79
2018-04-02T09:07:46.486Z,17.35
2018-04-02T09:08:46.993Z,16.92
2018-04-02T09:09:46.974Z,16.48
2018-04-02T09:10:46.779Z,16.17
2018-04-02T09:11:46.835Z,16.14
2018-04-02T09:12:46.808Z,16.18
2018-04-02T09:13:47.467Z,16.36
2018-04-02T09:14:47.916Z,16.37
2018-04-02T09:15:47.697Z,16.36
2018-04-02T09:16:46.997Z,15.98
2018-04-02T09:17:47.250Z,15.65
2018-04-02T09:18:47.674Z,15.58
2018-04-02T09:19:47.826Z,15.75
2018-04-02T09:20:48.789Z,15.98
2018-04-02T09:21:48.567Z,16.39
2018-04-02T09:22:48.532Z,16.39
2018-04-02T09:23:49.556Z,16.92
2018-04-02T09:24:49.310Z,18.38
2018-04-02T09:25:49.566Z,19.98
2018-04-02T09:26:49.649Z,21.31
2018-04-02T09:27:49.585Z,21.8
2018-04-02T09:28:49.628Z,22.22
2018-04-02T09:29:50.228Z,21.94
2018-04-02T09:30:49.739Z,21.77
2018-04-02T09:31:49.740Z,21.56
2018-04-02T09:32:49.772Z,21.19
2018-04-02T09:33:49.921Z,21.01
2018-04-02T09:34:49.900Z,20.4
2018-04-02T09:35:50.070Z,19.4
2018-04-02T09:36:50.372Z,18.75
2018-04-02T09:37:50.091Z,18.6
2018-04-02T09:38:50.628Z,18.59
2018-04-02T09:39:51.743Z,18.69
2018-04-02T09:40:51.502Z,19.31
2018-04-02T09:41:51.152Z,19.75
2018-04-02T09:42:52.574Z,20.57
2018-04-02T09:43:53.077Z,21.46
2018-04-02T09:44:52.134Z,22.48
2018-04-02T09:45:52.204Z,23.18
2018-04-02T09:46:53.123Z,24.24
2018-04-02T09:47:52.605Z,24.93
2018-04-02T09:48:52.678Z,25.48
2018-04-02T09:49:53.735Z,25.38
2018-04-02T09:50:53.685Z,25.48
2018-04-02T09:51:54.317Z,25.63
2018-04-02T09:52:54.068Z,25.45
2018-04-02T09:53:55.154Z,24.74
2018-04-02T09:54:54.142Z,24.14
2018-04-02T09:55:54.583Z,24.09
2018-04-02T09:56:54.300Z,24.18
2018-04-02T09:57:54.143Z,23.85
2018-04-02T09:58:54.599Z,23.12
2018-04-02T09:59:54.781Z,22.91
2018-04-02T10:00:55.177Z,22.97
2018-04-02T10:01:54.931Z,23.41
2018-04-02T10:02:54.844Z,24
2018-04-02T10:03:55.091Z,24.87
2018-04-02T10:04:54.636Z,25.05
2018-04-02T10:05:54.426Z,25.37
2018-04-02T10:06:54.267Z,25.76
2018-04-02T10:07:54.036Z,25.93
2018-04-02T10:08:54.180Z,25.82
2018-04-02T10:09:54.622Z,26.2
2018-04-02T10:10:54.325Z,26.52
2018-04-02T10:11:54.644Z,26.35
2018-04-02T10:12:54.387Z,25.52
2018-04-02T10:13:56.035Z,24.45
2018-04-02T10:14:55.040Z,23.79
2018-04-02T10:15:55.340Z,23.28
2018-04-02T10:16:55.509Z,23.41
2018-04-02T10:17:55.972Z,24.12
2018-04-02T10:18:55.714Z,25.04
2018-04-02T10:19:56.404Z,25.99
2018-04-02T10:20:56.547Z,26.6
2018-04-02T10:21:56.731Z,26.89
2018-04-02T10:22:58.311Z,26.75
2018-04-02T10:23:57.907Z,26.35
2018-04-02T10:24:57.708Z,25.66
2018-04-02T10:25:57.774Z,25.34
2018-04-02T10:26:57.934Z,25.52
2018-04-02T10:27:57.691Z,25.59
2018-04-02T10:28:58.137Z,25.93
2018-04-02T10:29:58.495Z,26.37
2018-04-02T10:30:58.211Z,26.68
2018-04-02T10:31:58.739Z,26.75
2018-04-02T10:32:59.268Z,26.76
2018-04-02T10:33:59.030Z,26.99
2018-04-02T10:34:59.479Z,27
2018-04-02T10:35:59.391Z,26.78
2018-04-02T10:36:59.717Z,26.81
2018-04-02T10:37:59.821Z,26.76
2018-04-02T10:38:59.256Z,26.2
2018-04-02T10:40:00.119Z,25.79
2018-04-02T10:41:00.450Z,25.62
2018-04-02T10:42:00.439Z,25.52
2018-04-02T10:43:00.557Z,25.86
2018-04-02T10:44:00.712Z,26.17
2018-04-02T10:45:00.935Z,25.96
2018-04-02T10:46:00.443Z,26.07
2018-04-02T10:47:00.741Z,26.01
2018-04-02T10:48:00.764Z,26.09
2018-04-02T10:49:01.092Z,26.06
2018-04-02T10:50:01.260Z,26.22
2018-04-02T10:51:01.531Z,25.93
2018-04-02T10:52:01.701Z,25.33
2018-04-02T10:53:02.250Z,25.05
2018-04-02T10:54:02.298Z,25.08
2018-04-02T10:55:01.995Z,25.39
2018-04-02T10:56:02.081Z,25.74
2018-04-02T10:57:02.324Z,26.2
2018-04-02T10:58:02.417Z,26.45
2018-04-02T10:59:02.324Z,26.42
2018-04-02T11:00:08.680Z,26.03
2018-04-02T11:01:02.989Z,25.44
2018-04-02T11:02:03.329Z,24.82
2018-04-02T11:03:03.036Z,24.4
2018-04-02T11:04:03.359Z,23.55
2018-04-02T11:05:03.519Z,23
2018-04-02T11:06:03.367Z,22.73
2018-04-02T11:07:03.155Z,22.46
2018-04-02T11:08:03.443Z,22.73
2018-04-02T11:09:03.477Z,23.26
2018-04-02T11:10:03.816Z,23.57
2018-04-02T11:11:03.572Z,24.09
2018-04-02T11:12:03.608Z,24.46
2018-04-02T11:13:03.663Z,25
2018-04-02T11:14:03.365Z,25.32
2018-04-02T11:15:03.604Z,25.22
2018-04-02T11:16:03.434Z,25.05
2018-04-02T11:17:03.237Z,24.59
2018-04-02T11:18:03.592Z,24.39
2018-04-02T11:19:03.838Z,24.48
2018-04-02T11:20:03.594Z,24.71
2018-04-02T11:21:03.867Z,25.09
2018-04-02T11:22:03.353Z,25.05
2018-04-02T11:23:03.690Z,25.19
2018-04-02T11:24:04.324Z,25.38
2018-04-02T11:25:04.297Z,24.86
2018-04-02T11:26:04.339Z,24.8
2018-04-02T11:27:04.340Z,24.49
2018-04-02T11:28:04.355Z,24.58
2018-04-02T11:29:04.435Z,24.7
2018-04-02T11:30:04.725Z,24.86
2018-04-02T11:31:04.421Z,24.3
2018-04-02T11:32:04.967Z,24.11
2018-04-02T11:33:04.962Z,24.07
2018-04-02T11:34:04.804Z,24.11
2018-04-02T11:35:05.525Z,24.15
2018-04-02T11:36:05.366Z,24.11
2018-04-02T11:37:05.392Z,23.99
2018-04-02T11:38:05.213Z,23.6
2018-04-02T11:39:04.907Z,23.22
2018-04-02T11:40:05.044Z,23.14
2018-04-02T11:41:05.340Z,22.78
2018-04-02T11:42:05.014Z,21.68
2018-04-02T11:43:05.601Z,20.82
2018-04-02T11:44:05.643Z,20.46
2018-04-02T11:45:06.084Z,20.32
2018-04-02T11:46:05.684Z,19.98
2018-04-02T11:47:05.707Z,19.68
2018-04-02T11:48:05.489Z,19.64
2018-04-02T11:49:06.519Z,19.68
2018-04-02T11:50:06.641Z,19.43
2018-04-02T11:51:06.060Z,19.45
2018-04-02T11:52:06.542Z,19.47
2018-04-02T11:53:06.790Z,19.07
2018-04-02T11:54:06.838Z,18.57
2018-04-02T11:55:06.931Z,17.92
2018-04-02T11:56:07.472Z,17.21
2018-04-02T11:57:07.743Z,16.36
2018-04-02T11:58:07.543Z,15.52
2018-04-02T11:59:07.282Z,14.79
2018-04-02T12:00:21.806Z,13.79
2018-04-02T12:01:07.252Z,13.35
2018-04-02T12:02:07.351Z,12.77
2018-04-02T12:03:07.211Z,12.15
2018-04-02T12:04:07.485Z,11.73
2018-04-02T12:05:07.857Z,11.48
2018-04-02T12:06:08.076Z,11.28
2018-04-02T12:07:08.353Z,11.21
2018-04-02T12:08:08.528Z,11.18
2018-04-02T12:09:08.577Z,11.15
2018-04-02T12:10:09.347Z,11.09
2018-04-02T12:11:09.034Z,11.2
2018-04-02T12:12:09.850Z,11.15
2018-04-02T12:13:09.408Z,11.27
2018-04-02T12:14:09.155Z,11.41
2018-04-02T12:15:09.269Z,11.34
2018-04-02T12:16:09.476Z,11.16
2018-04-02T12:17:09.731Z,11.16
2018-04-02T12:18:10.280Z,11.06
2018-04-02T12:19:10.541Z,11.09
2018-04-02T12:20:10.770Z,11.1
2018-04-02T12:21:10.792Z,10.98
2018-04-02T12:22:10.884Z,11.09
2018-04-02T12:23:10.543Z,11.15
2018-04-02T12:24:10.952Z,11.03
2018-04-02T12:25:11.656Z,11.09
2018-04-02T12:26:11.600Z,10.98
2018-04-02T12:27:11.711Z,10.94
2018-04-02T12:28:11.532Z,11
2018-04-02T12:29:11.970Z,11.08
2018-04-02T12:30:11.726Z,11.09
2018-04-02T12:31:12.129Z,11.18
2018-04-02T12:32:12.273Z,11.26
2018-04-02T12:33:12.132Z,11.3
2018-04-02T12:34:12.278Z,11.43
2018-04-02T12:35:13.159Z,11.45
2018-04-02T12:36:12.538Z,11.45
2018-04-02T12:37:12.440Z,11.46
2018-04-02T12:38:13.225Z,11.46
2018-04-02T12:39:13.201Z,11.46
2018-04-02T12:40:12.955Z,11.48
2018-04-02T12:41:13.440Z,11.53
2018-04-02T12:42:13.144Z,11.48
2018-04-02T12:43:13.596Z,11.57
2018-04-02T12:44:13.228Z,11.39
2018-04-02T12:45:14.293Z,11.39
2018-04-02T12:46:14.420Z,11.27
2018-04-02T12:47:14.439Z,11.21
2018-04-02T12:48:14.359Z,11.27
2018-04-02T12:49:14.923Z,11.2
2018-04-02T12:50:14.950Z,11.24
2018-04-02T12:51:15.117Z,11.28
2018-04-02T12:52:15.215Z,11.15
2018-04-02T12:53:15.453Z,11.13
2018-04-02T12:54:15.278Z,11.16
2018-04-02T12:55:15.676Z,11.12
2018-04-02T12:56:15.292Z,11.08
2018-04-02T12:57:15.330Z,11.08
2018-04-02T12:58:15.845Z,11.09
2018-04-02T12:59:15.596Z,11.1
2018-04-02T13:00:18.730Z,10.97
2018-04-02T13:01:19.236Z,11.05
2018-04-02T13:02:18.853Z,11.09
2018-04-02T13:03:18.955Z,11.08
2018-04-02T13:04:19.664Z,11.03
2018-04-02T13:05:19.100Z,11.1
2018-04-02T13:06:18.927Z,10.91
2018-04-02T13:07:19.028Z,10.87